Octavia, Nebraska
Current Conditions -  °F | °C
As of 9:55 PM on Saturday 24 Jan 2015 (Local Time) from KOLU Reporting Station
Scattered Clouds Scattered Clouds  
Wind Chill: 37°   Ceiling: Unl
Heat Index: 45°   Visibility: 10mi
Dew Point: 36°   Wind: 20mph
Humidity: 71%   Direction: 310°NW
Pressure: 29.66"   Gusts: 30mph
Location:  41.1947°N, 97.127°W
Report Text: KOLU 250355Z AUTO 31017G26KT 10SM FEW046 SCT050 07/02 A2966 RMK AO1
Loading
Personal Weather Stations






























Interactive Weather Map New forecast layout! Learn more

10-Day Weather Forecast

Advertisements
Track Severe Weather on mobile